Country
Station

 

Weather  for  Prescott, Love Field  -  United States    United States

  
29 °C (84 °F)
    
 
 

Current METAR for Prescott, Love Field is :

KPRC 191653Z AUTO 17007KT 150V210 10SM CLR 29/04 A3013 RMK AO2 SLP105 T02890039

 

This is a report for Prescott, Love Field - United States.
 
The report was made 28 minutes ago, at 16:53 UTC .
The wind was blowing at a speed of 3.6 meters per second (8.1 miles per hour) from south (170°), varying between south/southeast (150°) and south/southwest (210°).
 
The temperature was 29 °C (84 °F), with a dew-point at 4 °C (39 °F).
The temperature felt like 27 °C (81 °F).
 
The atmospheric pressure was 1020 hPa (30.13 inHg).
The relative humidity was 20.3%.
 
The sky was clear.
 
The overall visibility was 16.1 kilometers (10.0 miles).
 

 
 
 
 

Country :   A   B   C   D   E   F   G   H   I   J   K   L   M   N   O   P   Q   R   S   T   U   V   W   Y   Z

 

Site Info  |  Disclaimer  |  Credits  |  Privacy
Contact us  |  Add to favorites
© 2013-2019 METARs - All rights reserved